createdAt,value
2023-03-03T00:01:28.834Z,101935.66
2023-03-03T00:03:55.309Z,101930.03
2023-03-03T00:06:22.004Z,101941.25
2023-03-03T00:08:48.391Z,101950.09
2023-03-03T00:11:14.802Z,101957.09
2023-03-03T00:13:50.194Z,101952.91
2023-03-03T00:16:25.226Z,101956.31
2023-03-03T00:18:52.699Z,101963.91
2023-03-03T00:21:29.160Z,101966.25
2023-03-03T00:24:10.892Z,101958.66
2023-03-03T00:26:43.937Z,101959.91
2023-03-03T00:29:33.391Z,101960.41
2023-03-03T00:32:15.593Z,101934.41
2023-03-03T00:34:43.573Z,101933.09
2023-03-03T00:37:35.407Z,101937.94
2023-03-03T00:40:24.028Z,101933.00
2023-03-03T00:42:59.443Z,101937.34
2023-03-03T00:45:48.496Z,101949.03
2023-03-03T00:48:31.160Z,101942.19
2023-03-03T00:50:59.699Z,101922.63
2023-03-03T00:53:30.547Z,101932.41
2023-03-03T00:55:57.822Z,101928.81
2023-03-03T00:58:25.439Z,101928.22
2023-03-03T01:00:53.878Z,101938.13
2023-03-03T01:03:26.381Z,101935.56
2023-03-03T01:05:54.349Z,101929.50
2023-03-03T01:08:22.194Z,101925.69
2023-03-03T01:10:51.664Z,101927.09
2023-03-03T01:13:22.120Z,101923.19
2023-03-03T01:15:48.567Z,101914.84
2023-03-03T01:18:15.181Z,101919.81
2023-03-03T01:20:41.986Z,101926.16
2023-03-03T01:23:09.150Z,101922.06
2023-03-03T01:25:36.028Z,101921.66
2023-03-03T01:28:02.662Z,101927.94
2023-03-03T01:30:29.178Z,101925.47
2023-03-03T01:32:55.713Z,101918.56
2023-03-03T01:35:22.138Z,101911.34
2023-03-03T01:37:48.629Z,101912.97
2023-03-03T01:40:20.345Z,101904.78
2023-03-03T01:42:47.940Z,101895.31
2023-03-03T01:45:20.050Z,101890.56
2023-03-03T01:48:11.000Z,101890.75
2023-03-03T01:50:55.065Z,101887.03
2023-03-03T01:53:38.623Z,101880.47
2023-03-03T01:56:07.483Z,101886.19
2023-03-03T01:58:59.970Z,101880.38
2023-03-03T02:01:28.469Z,101874.88
2023-03-03T02:03:56.220Z,101884.75
2023-03-03T02:06:28.445Z,101880.31
2023-03-03T02:09:01.754Z,101878.19
2023-03-03T02:11:32.241Z,101884.94
2023-03-03T02:13:58.854Z,101888.66
2023-03-03T02:16:25.381Z,101895.69
2023-03-03T02:21:35.462Z,101896.22
2023-03-03T02:24:16.166Z,101896.53
2023-03-03T02:26:43.033Z,101899.09
2023-03-03T02:29:10.568Z,101905.53
2023-03-03T02:31:40.523Z,101912.00
2023-03-03T02:34:07.266Z,101905.53
2023-03-03T02:36:36.608Z,101896.13
2023-03-03T02:39:19.487Z,101903.16
2023-03-03T02:41:53.257Z,101900.41
2023-03-03T02:44:23.618Z,101902.16
2023-03-03T02:46:52.370Z,101901.00
2023-03-03T02:49:22.568Z,101898.13
2023-03-03T02:51:49.559Z,101898.13
2023-03-03T02:54:17.210Z,101906.78
2023-03-03T02:56:43.635Z,101899.75
2023-03-03T02:59:10.750Z,101903.28
2023-03-03T03:01:42.780Z,101891.22
2023-03-03T03:04:19.263Z,101897.09
2023-03-03T03:06:49.230Z,101896.34
2023-03-03T03:09:17.750Z,101902.78
2023-03-03T03:11:45.303Z,101912.09
2023-03-03T03:14:14.764Z,101897.78
2023-03-03T03:16:43.098Z,101909.16
2023-03-03T03:19:10.464Z,101917.59
2023-03-03T03:21:38.418Z,101899.56
2023-03-03T03:24:06.725Z,101918.47
2023-03-03T03:26:34.672Z,101920.34
2023-03-03T03:29:02.124Z,101924.00
2023-03-03T03:31:28.687Z,101915.72
2023-03-03T03:33:55.187Z,101919.03
2023-03-03T03:36:22.983Z,101922.38
2023-03-03T03:38:50.003Z,101927.00
2023-03-03T03:41:16.429Z,101931.38
2023-03-03T03:43:43.036Z,101935.19
2023-03-03T03:46:09.764Z,101930.34
2023-03-03T03:48:36.441Z,101920.19
2023-03-03T03:51:04.958Z,101914.66
2023-03-03T03:53:32.309Z,101914.00
2023-03-03T03:55:58.953Z,101908.03
2023-03-03T03:58:25.776Z,101911.06
2023-03-03T04:01:03.790Z,101916.56
2023-03-03T04:03:30.570Z,101905.28
2023-03-03T04:05:57.077Z,101907.47
2023-03-03T04:08:23.710Z,101897.28
2023-03-03T04:10:50.268Z,101900.88
2023-03-03T04:13:17.599Z,101891.59
2023-03-03T04:15:45.155Z,101894.53
2023-03-03T04:18:12.065Z,101897.97
2023-03-03T04:20:40.052Z,101889.78
2023-03-03T04:23:07.287Z,101888.75
2023-03-03T04:25:34.058Z,101890.44
2023-03-03T04:28:03.567Z,101895.09
2023-03-03T04:30:32.443Z,101884.78
2023-03-03T04:32:59.333Z,101884.28
2023-03-03T04:35:26.945Z,101893.09
2023-03-03T04:37:53.791Z,101887.78
2023-03-03T04:40:20.522Z,101886.88
2023-03-03T04:42:49.457Z,101875.47
2023-03-03T04:45:16.049Z,101877.09
2023-03-03T04:47:45.004Z,101886.78
2023-03-03T04:50:12.477Z,101881.06
2023-03-03T04:52:39.124Z,101884.56
2023-03-03T04:55:10.293Z,101891.41
2023-03-03T04:57:37.538Z,101890.25
2023-03-03T05:00:04.869Z,101893.22
2023-03-03T05:02:31.387Z,101891.13
2023-03-03T05:04:57.907Z,101900.03
2023-03-03T05:07:24.681Z,101888.25
2023-03-03T05:09:51.086Z,101875.19
2023-03-03T05:12:17.521Z,101881.63
2023-03-03T05:14:43.909Z,101879.63
2023-03-03T05:17:10.290Z,101878.66
2023-03-03T05:19:36.722Z,101887.56
2023-03-03T05:22:03.126Z,101890.31
2023-03-03T05:24:29.608Z,101878.19
2023-03-03T05:26:55.993Z,101871.25
2023-03-03T05:29:22.486Z,101870.03
2023-03-03T05:31:49.003Z,101869.47
2023-03-03T05:34:15.540Z,101870.81
2023-03-03T05:36:41.983Z,101877.81
2023-03-03T05:39:08.375Z,101882.25
2023-03-03T05:41:36.801Z,101891.47
2023-03-03T05:44:03.591Z,101895.69
2023-03-03T05:46:30.085Z,101896.19
2023-03-03T05:48:56.512Z,101901.72
2023-03-03T05:51:22.931Z,101900.41
2023-03-03T05:53:49.378Z,101907.91
2023-03-03T05:56:15.789Z,101902.78
2023-03-03T05:58:42.198Z,101901.34
2023-03-03T06:01:08.670Z,101910.28
2023-03-03T06:03:35.141Z,101907.31
2023-03-03T06:06:01.589Z,101905.78
2023-03-03T06:08:28.049Z,101911.19
2023-03-03T06:10:54.469Z,101917.00
2023-03-03T06:13:20.913Z,101913.03
2023-03-03T06:15:47.468Z,101900.78
2023-03-03T06:18:13.872Z,101911.50
2023-03-03T06:20:40.346Z,101904.09
2023-03-03T06:23:06.832Z,101916.72
2023-03-03T06:25:35.632Z,101924.41
2023-03-03T06:28:03.074Z,101921.97
2023-03-03T06:30:30.600Z,101929.53
2023-03-03T06:32:57.067Z,101934.50
2023-03-03T06:35:23.497Z,101940.56
2023-03-03T06:37:50.810Z,101932.88
2023-03-03T06:40:17.470Z,101936.78
2023-03-03T06:42:43.877Z,101927.00
2023-03-03T06:45:10.644Z,101936.84
2023-03-03T06:47:37.036Z,101929.94
2023-03-03T06:50:03.672Z,101941.00
2023-03-03T06:52:30.062Z,101935.41
2023-03-03T06:54:58.746Z,101939.09
2023-03-03T06:57:34.560Z,101938.16
2023-03-03T07:00:20.839Z,101935.28
2023-03-03T07:02:53.590Z,101937.03
2023-03-03T07:05:20.059Z,101946.34
2023-03-03T07:07:46.517Z,101953.75
2023-03-03T07:10:28.030Z,101965.78
2023-03-03T07:12:59.418Z,101973.19
2023-03-03T07:15:36.007Z,101977.47
2023-03-03T07:18:03.231Z,101981.81
2023-03-03T07:20:36.331Z,101976.84
2023-03-03T07:23:18.954Z,101978.66
2023-03-03T07:25:46.614Z,101976.75
2023-03-03T07:28:29.785Z,101963.63
2023-03-03T07:30:58.220Z,101967.06
2023-03-03T07:33:27.677Z,101960.94
2023-03-03T07:35:56.986Z,101968.44
2023-03-03T07:38:30.451Z,101967.53
2023-03-03T07:41:00.702Z,101976.03
2023-03-03T07:43:37.776Z,101980.88
2023-03-03T07:46:10.902Z,101983.56
2023-03-03T07:48:41.972Z,101993.16
2023-03-03T07:51:22.362Z,101995.22
2023-03-03T07:53:49.385Z,101990.47
2023-03-03T07:56:25.133Z,101989.41
2023-03-03T07:58:51.853Z,101996.75
2023-03-03T08:01:40.873Z,101998.81
2023-03-03T08:04:21.748Z,101996.72
2023-03-03T08:06:56.308Z,101999.03
2023-03-03T08:09:31.112Z,101993.44
2023-03-03T08:12:20.257Z,102000.94
2023-03-03T08:14:47.042Z,102001.91
2023-03-03T08:17:26.274Z,102002.47
2023-03-03T08:19:54.520Z,102008.66
2023-03-03T08:22:36.045Z,101989.84
2023-03-03T08:25:02.527Z,101991.38
2023-03-03T08:27:28.964Z,101995.66
2023-03-03T08:29:55.363Z,101988.06
2023-03-03T08:32:22.077Z,101991.75
2023-03-03T08:34:48.839Z,101983.78
2023-03-03T08:37:15.278Z,101980.28
2023-03-03T08:39:41.723Z,101989.78
2023-03-03T08:42:08.223Z,101976.59
2023-03-03T08:44:34.623Z,101989.50
2023-03-03T08:47:01.180Z,101994.34
2023-03-03T08:49:27.582Z,101987.47
2023-03-03T08:51:54.600Z,101989.22
2023-03-03T08:54:20.992Z,101995.00
2023-03-03T08:56:47.389Z,101998.22
2023-03-03T08:59:13.785Z,101993.41
2023-03-03T09:01:40.240Z,102002.03
2023-03-03T09:04:06.800Z,101985.69
2023-03-03T09:06:33.363Z,101988.94
2023-03-03T09:08:59.770Z,101990.81
2023-03-03T09:11:28.176Z,101990.53
2023-03-03T09:14:02.477Z,101988.53
2023-03-03T09:16:35.662Z,101986.25
2023-03-03T09:19:16.584Z,101993.09
2023-03-03T09:21:43.173Z,101984.63
2023-03-03T09:24:22.894Z,101985.00
2023-03-03T09:26:49.320Z,101979.00
2023-03-03T09:29:23.775Z,101989.09
2023-03-03T09:31:52.663Z,101990.13
2023-03-03T09:34:25.487Z,101993.09
2023-03-03T09:36:55.115Z,101991.56
2023-03-03T09:39:26.907Z,101987.31
2023-03-03T09:42:19.522Z,101980.38
2023-03-03T09:44:57.850Z,101977.59
2023-03-03T09:47:43.981Z,101977.31
2023-03-03T09:50:23.997Z,101982.31
2023-03-03T09:53:02.346Z,101987.16
2023-03-03T09:56:00.958Z,101996.44
2023-03-03T09:58:52.801Z,101992.94
2023-03-03T10:01:45.494Z,101981.97
2023-03-03T10:04:31.220Z,101984.47
2023-03-03T10:07:30.031Z,101979.88
2023-03-03T10:10:22.555Z,101975.66
2023-03-03T10:13:05.705Z,101986.28
2023-03-03T10:15:53.487Z,101994.59
2023-03-03T10:18:39.308Z,101992.94
2023-03-03T10:21:10.800Z,101999.00
2023-03-03T10:23:54.892Z,101979.50
2023-03-03T10:26:44.197Z,101988.38
2023-03-03T10:29:34.074Z,101982.06
2023-03-03T10:32:19.143Z,101975.88
2023-03-03T10:34:54.420Z,101982.41
2023-03-03T10:37:47.637Z,101975.81
2023-03-03T10:40:55.874Z,101975.28
2023-03-03T10:43:36.922Z,101989.63
2023-03-03T10:46:42.357Z,101982.38
2023-03-03T10:49:18.811Z,101977.94
2023-03-03T10:52:01.072Z,101981.41
2023-03-03T10:54:52.686Z,101983.16
2023-03-03T10:57:30.740Z,101984.59
2023-03-03T11:00:16.082Z,101983.69
2023-03-03T11:03:11.624Z,101984.53
2023-03-03T11:05:55.027Z,101988.13
2023-03-03T11:08:29.820Z,101986.03
2023-03-03T11:11:34.449Z,101984.97
2023-03-03T11:14:12.970Z,101977.91
2023-03-03T11:17:05.568Z,101974.06
2023-03-03T11:19:57.621Z,101984.75
2023-03-03T11:22:49.604Z,101984.91
2023-03-03T11:25:25.149Z,101991.66
2023-03-03T11:28:06.705Z,101986.34
2023-03-03T11:31:01.121Z,101984.94
2023-03-03T11:33:45.600Z,101971.34
2023-03-03T11:36:20.816Z,101975.19
2023-03-03T11:39:10.786Z,101975.63
2023-03-03T11:42:02.074Z,101971.34
2023-03-03T11:44:40.660Z,101964.16
2023-03-03T11:47:31.417Z,101957.19
2023-03-03T11:50:14.042Z,101960.13
2023-03-03T11:52:53.285Z,101968.44
2023-03-03T11:55:35.996Z,101967.66
2023-03-03T11:58:21.960Z,101972.72
2023-03-03T12:01:03.990Z,101968.56
2023-03-03T12:03:39.609Z,101952.84
2023-03-03T12:06:34.123Z,101941.13
2023-03-03T12:09:11.796Z,101947.56
2023-03-03T12:11:50.761Z,101940.16
2023-03-03T12:14:37.595Z,101938.22
2023-03-03T12:17:21.561Z,101937.63
2023-03-03T12:20:29.777Z,101929.94
2023-03-03T12:23:07.561Z,101931.66
2023-03-03T12:25:43.872Z,101933.34
2023-03-03T12:28:19.513Z,101926.97
2023-03-03T12:31:09.000Z,101912.72
2023-03-03T12:33:54.003Z,101908.69
2023-03-03T12:36:32.388Z,101896.81
2023-03-03T12:39:32.443Z,101904.00
2023-03-03T12:42:14.198Z,101898.00
2023-03-03T12:44:59.432Z,101906.31
2023-03-03T12:47:40.158Z,101900.59
2023-03-03T12:50:09.324Z,101900.19
2023-03-03T12:53:02.698Z,101897.81
2023-03-03T12:55:55.194Z,101892.09
2023-03-03T12:58:56.352Z,101887.66
2023-03-03T13:01:39.901Z,101890.63
2023-03-03T13:04:29.852Z,101885.31
2023-03-03T13:07:18.192Z,101892.13
2023-03-03T13:10:02.026Z,101878.94
2023-03-03T13:12:35.260Z,101876.59
2023-03-03T13:15:20.077Z,101873.41
2023-03-03T13:18:10.953Z,101869.13
2023-03-03T13:20:45.313Z,101870.19
2023-03-03T13:23:53.264Z,101877.44
2023-03-03T13:26:32.543Z,101867.44
2023-03-03T13:29:20.398Z,101872.94
2023-03-03T13:31:55.865Z,101868.06
2023-03-03T13:34:42.751Z,101865.53
2023-03-03T13:37:23.826Z,101868.47
2023-03-03T13:40:05.604Z,101864.22
2023-03-03T13:42:44.261Z,101863.59
2023-03-03T13:45:31.231Z,101877.00
2023-03-03T13:48:19.468Z,101858.06
2023-03-03T13:50:53.363Z,101854.44
2023-03-03T13:53:36.159Z,101856.97
2023-03-03T13:56:15.238Z,101846.34
2023-03-03T13:58:53.648Z,101845.06
2023-03-03T14:01:38.338Z,101842.72
2023-03-03T14:04:31.568Z,101839.50
2023-03-03T14:07:08.054Z,101833.53
2023-03-03T14:09:53.156Z,101829.09
2023-03-03T14:12:31.372Z,101825.66
2023-03-03T14:15:17.340Z,101827.94
2023-03-03T14:18:17.131Z,101820.56
2023-03-03T14:20:54.875Z,101814.13
2023-03-03T14:23:30.927Z,101814.56
2023-03-03T14:26:10.169Z,101807.72
2023-03-03T14:28:44.082Z,101806.38
2023-03-03T14:31:38.363Z,101817.06
2023-03-03T14:34:22.879Z,101819.09
2023-03-03T14:36:58.067Z,101814.38
2023-03-03T14:39:37.184Z,101805.47
2023-03-03T14:42:29.813Z,101805.53
2023-03-03T14:44:59.289Z,101795.72
2023-03-03T14:47:27.542Z,101788.22
2023-03-03T14:49:56.592Z,101794.81
2023-03-03T14:52:26.196Z,101797.31
2023-03-03T14:54:56.119Z,101789.63
2023-03-03T14:57:45.959Z,101780.88
2023-03-03T15:00:12.570Z,101777.91
2023-03-03T15:03:01.992Z,101781.06
2023-03-03T15:05:31.069Z,101777.78
2023-03-03T15:08:08.902Z,101775.97
2023-03-03T15:10:38.514Z,101776.13
2023-03-03T15:13:20.212Z,101770.50
2023-03-03T15:16:00.469Z,101778.59
2023-03-03T15:18:29.242Z,101768.41
2023-03-03T15:21:08.061Z,101771.97
2023-03-03T15:23:42.742Z,101762.63
2023-03-03T15:26:50.387Z,101762.34
2023-03-03T15:29:30.507Z,101757.44
2023-03-03T15:32:17.812Z,101760.13
2023-03-03T15:34:51.272Z,101756.91
2023-03-03T15:37:47.558Z,101744.06
2023-03-03T15:40:29.257Z,101739.13
2023-03-03T15:43:17.552Z,101733.72
2023-03-03T15:45:43.906Z,101745.19
2023-03-03T15:48:46.312Z,101745.41
2023-03-03T15:52:02.160Z,101730.47
2023-03-03T15:54:41.219Z,101732.31
2023-03-03T15:57:21.662Z,101726.75
2023-03-03T16:00:02.832Z,101727.84
2023-03-03T16:02:53.640Z,101726.09
2023-03-03T16:05:45.845Z,101722.06
2023-03-03T16:08:25.924Z,101716.34
2023-03-03T16:11:09.320Z,101728.75
2023-03-03T16:13:59.600Z,101725.13
2023-03-03T16:16:52.086Z,101722.91
2023-03-03T16:20:01.970Z,101727.91
2023-03-03T16:23:10.072Z,101727.28
2023-03-03T16:25:58.234Z,101718.00
2023-03-03T16:28:34.780Z,101711.78
2023-03-03T16:31:21.973Z,101723.16
2023-03-03T16:34:06.006Z,101721.84
2023-03-03T16:36:38.599Z,101725.94
2023-03-03T16:39:38.801Z,101726.38
2023-03-03T16:42:25.920Z,101724.06
2023-03-03T16:45:18.330Z,101718.44
2023-03-03T16:47:56.838Z,101718.50
2023-03-03T16:51:00.874Z,101720.59
2023-03-03T16:53:45.821Z,101719.56
2023-03-03T16:56:18.256Z,101710.41
2023-03-03T16:59:28.547Z,101715.38
2023-03-03T17:02:12.674Z,101718.53
2023-03-03T17:05:05.816Z,101715.84
2023-03-03T17:08:00.135Z,101718.44
2023-03-03T17:10:30.309Z,101712.25
2023-03-03T17:13:05.119Z,101718.25
2023-03-03T17:15:39.415Z,101721.69
2023-03-03T17:18:25.410Z,101716.41
2023-03-03T17:20:58.000Z,101720.53
2023-03-03T17:23:34.921Z,101719.75
2023-03-03T17:26:20.638Z,101719.75
2023-03-03T17:29:07.393Z,101714.22
2023-03-03T17:31:53.893Z,101715.69
2023-03-03T17:34:46.633Z,101715.47
2023-03-03T17:37:27.964Z,101720.19
2023-03-03T17:40:05.443Z,101718.97
2023-03-03T17:42:47.704Z,101718.97
2023-03-03T17:45:15.886Z,101722.59
2023-03-03T17:47:50.595Z,101724.72
2023-03-03T17:50:41.872Z,101718.97
2023-03-03T17:53:36.434Z,101720.28
2023-03-03T17:56:16.129Z,101720.53
2023-03-03T17:59:02.618Z,101719.81
2023-03-03T18:01:57.486Z,101722.41
2023-03-03T18:04:52.240Z,101718.59
2023-03-03T18:07:45.848Z,101707.91
2023-03-03T18:10:42.991Z,101716.84
2023-03-03T18:13:30.992Z,101717.94
2023-03-03T18:16:18.112Z,101713.00
2023-03-03T18:19:18.153Z,101708.94
2023-03-03T18:22:17.085Z,101706.81
2023-03-03T18:24:49.495Z,101703.38
2023-03-03T18:27:24.708Z,101704.47
2023-03-03T18:30:12.844Z,101698.50
2023-03-03T18:33:01.155Z,101693.44
2023-03-03T18:35:33.496Z,101690.69
2023-03-03T18:38:15.049Z,101693.25
2023-03-03T18:40:58.232Z,101697.97
2023-03-03T18:43:39.843Z,101684.13
2023-03-03T18:46:29.133Z,101690.44
2023-03-03T18:49:09.875Z,101699.88
2023-03-03T18:51:39.348Z,101697.75
2023-03-03T18:54:30.903Z,101700.50
2023-03-03T18:56:57.784Z,101697.25
2023-03-03T18:59:30.273Z,101696.66
2023-03-03T19:02:29.918Z,101699.63
2023-03-03T19:05:05.865Z,101695.59
2023-03-03T19:07:49.258Z,101700.69
2023-03-03T19:10:46.825Z,101688.53
2023-03-03T19:13:32.073Z,101694.78
2023-03-03T19:16:08.118Z,101693.84
2023-03-03T19:18:43.248Z,101689.16
2023-03-03T19:21:12.721Z,101689.16
2023-03-03T19:24:00.874Z,101684.25
2023-03-03T19:26:30.316Z,101686.22
2023-03-03T19:29:05.498Z,101679.78
2023-03-03T19:31:34.985Z,101679.97
2023-03-03T19:34:19.160Z,101680.69
2023-03-03T19:37:05.644Z,101677.03
2023-03-03T19:39:50.732Z,101683.00
2023-03-03T19:42:30.948Z,101667.59
2023-03-03T19:45:31.962Z,101674.88
2023-03-03T19:48:22.441Z,101672.56
2023-03-03T19:51:25.671Z,101678.13
2023-03-03T19:54:29.858Z,101674.25
2023-03-03T19:57:01.833Z,101668.91
2023-03-03T19:59:59.033Z,101673.16
2023-03-03T20:02:55.245Z,101685.13
2023-03-03T20:05:47.968Z,101678.13
2023-03-03T20:08:21.198Z,101681.72
2023-03-03T20:10:59.646Z,101678.16
2023-03-03T20:13:30.852Z,101677.66
2023-03-03T20:16:04.428Z,101676.25
2023-03-03T20:19:01.515Z,101679.22
2023-03-03T20:21:59.080Z,101676.88
2023-03-03T20:25:03.255Z,101680.50
2023-03-03T20:27:47.558Z,101676.88
2023-03-03T20:30:26.264Z,101673.69
2023-03-03T20:33:10.617Z,101672.69
2023-03-03T20:36:05.381Z,101676.94
2023-03-03T20:38:45.604Z,101666.75
2023-03-03T20:41:39.424Z,101676.69
2023-03-03T20:44:19.026Z,101673.72
2023-03-03T20:46:57.507Z,101662.91
2023-03-03T20:50:15.400Z,101658.84
2023-03-03T20:53:14.018Z,101656.97
2023-03-03T20:55:57.830Z,101651.81
2023-03-03T20:58:36.724Z,101649.94
2023-03-03T21:01:09.504Z,101648.25
2023-03-03T21:03:45.190Z,101651.66
2023-03-03T21:06:15.504Z,101639.97
2023-03-03T21:08:53.461Z,101641.19
2023-03-03T21:11:31.805Z,101640.38
2023-03-03T21:13:59.439Z,101635.41
2023-03-03T21:16:25.852Z,101641.63
2023-03-03T21:19:00.375Z,101625.84
2023-03-03T21:21:29.727Z,101631.34
2023-03-03T21:23:56.729Z,101627.97
2023-03-03T21:26:49.496Z,101618.78
2023-03-03T21:29:27.600Z,101622.59
2023-03-03T21:32:05.364Z,101629.00
2023-03-03T21:34:32.903Z,101617.50
2023-03-03T21:37:01.231Z,101614.25
2023-03-03T21:39:36.155Z,101603.06
2023-03-03T21:42:08.779Z,101605.19
2023-03-03T21:44:39.626Z,101605.88
2023-03-03T21:47:08.799Z,101598.56
2023-03-03T21:49:35.845Z,101610.72
2023-03-03T21:52:02.876Z,101602.41
2023-03-03T21:54:29.385Z,101589.09
2023-03-03T21:56:55.776Z,101598.19
2023-03-03T21:59:22.265Z,101597.97
2023-03-03T22:01:48.680Z,101593.06
2023-03-03T22:04:15.533Z,101593.09
2023-03-03T22:06:42.161Z,101585.81
2023-03-03T22:09:08.577Z,101585.84
2023-03-03T22:11:35.016Z,101589.97
2023-03-03T22:14:01.711Z,101579.53
2023-03-03T22:16:28.157Z,101577.41
2023-03-03T22:18:54.575Z,101577.41
2023-03-03T22:21:21.925Z,101568.28
2023-03-03T22:23:48.336Z,101562.94
2023-03-03T22:26:14.719Z,101561.69
2023-03-03T22:28:43.818Z,101557.69
2023-03-03T22:31:10.634Z,101560.91
2023-03-03T22:33:37.042Z,101555.56
2023-03-03T22:36:03.609Z,101553.66
2023-03-03T22:38:30.018Z,101551.72
2023-03-03T22:40:56.410Z,101551.97
2023-03-03T22:43:22.821Z,101563.28
2023-03-03T22:45:50.488Z,101557.75
2023-03-03T22:48:17.061Z,101554.56
2023-03-03T22:50:45.476Z,101543.47
2023-03-03T22:53:11.900Z,101527.31
2023-03-03T22:55:38.332Z,101518.38
2023-03-03T22:58:05.213Z,101510.28
2023-03-03T23:00:33.286Z,101505.19
2023-03-03T23:02:59.814Z,101510.31
2023-03-03T23:05:26.462Z,101506.72
2023-03-03T23:07:52.883Z,101503.59
2023-03-03T23:10:19.357Z,101502.72
2023-03-03T23:12:45.794Z,101510.56
2023-03-03T23:15:15.452Z,101520.34
2023-03-03T23:17:43.593Z,101515.94
2023-03-03T23:20:13.130Z,101498.06
2023-03-03T23:22:40.246Z,101504.22
2023-03-03T23:25:07.402Z,101497.47
2023-03-03T23:27:34.118Z,101488.13
2023-03-03T23:30:00.517Z,101477.94
2023-03-03T23:32:26.988Z,101474.78
2023-03-03T23:34:54.250Z,101468.81
2023-03-03T23:37:21.361Z,101473.53
2023-03-03T23:39:48.123Z,101476.06
2023-03-03T23:42:14.586Z,101475.47
2023-03-03T23:44:41.176Z,101481.84
2023-03-03T23:47:08.524Z,101478.84
2023-03-03T23:54:41.784Z,101479.94
2023-03-03T23:57:08.752Z,101476.53
2023-03-03T23:59:35.721Z,101465.69
